Austin, Texas
Traffic Map
Current Weather Conditions
Austin, Texas
Broken Clouds
Broken Clouds
75°
Feels Like: 75°
Wind Chill: 75° Ceiling: 1600
Heat Index: 75° Visibility: 10mi
Dew Point: 71° Wind: 0mph
Humidity: 87% Direction: ° ()
Pressure: 30in Gusts: 0mph
Raw Report DataKATT 290808Z AUTO 00000KT 10SM BKN016 24/22 A3000 RMK AO2 T02390217
Traffic Incident Summary
Active as of:
Severity:
Category:
InformationThere was an issue retrieving the traffic information for this location. Please try a different location or try again shortly.
Advertisements
Track Severe Weather on mobile